Time;durP1;ratioP1;P1;durP2;ratioP2;P2;SDS_P1;SDS_P2;PMS_P1;PMS_P2;Temp;Humidity;BMP_temperature;BMP_pressure;BME280_temperature;BME280_humidity;BME280_pressure;Samples;Min_cycle;Max_cycle;Signal;HPM_P1;HPM_P2
2023/09/10 00:00:29;;;;;;;860.05;151.18;;;20.30;99.90;;;;;;5009440;28;20065;-65
2023/09/10 00:02:55;;;;;;;423.23;129.60;;;19.50;99.90;;;;;;4991284;28;20452;-66
2023/09/10 00:05:20;;;;;;;160.82;121.22;;;19.90;99.90;;;;;;4998407;28;20042;-65
2023/09/10 00:07:46;;;;;;;139.52;122.78;;;20.10;99.90;;;;;;5009850;28;20034;-66
2023/09/10 00:10:11;;;;;;;141.13;125.82;;;20.10;99.90;;;;;;4992797;28;20038;-65
2023/09/10 00:12:37;;;;;;;147.95;128.18;;;19.60;99.90;;;;;;4991325;28;20046;-66
2023/09/10 00:15:04;;;;;;;154.93;133.82;;;20.30;99.90;;;;;;4991228;28;20046;-65
2023/09/10 00:17:30;;;;;;;160.77;133.57;;;19.70;99.90;;;;;;4991034;28;20038;-65
2023/09/10 00:19:55;;;;;;;148.98;125.65;;;19.90;99.90;;;;;;4995946;28;20471;-67
2023/09/10 00:22:21;;;;;;;142.07;126.97;;;20.70;99.90;;;;;;5005880;28;20045;-64
2023/09/10 00:24:46;;;;;;;144.43;124.70;;;20.40;99.90;;;;;;5010091;28;20038;-66
2023/09/10 00:27:13;;;;;;;128.63;115.20;;;20.90;99.90;;;;;;5010864;28;20073;-65
2023/09/10 00:29:39;;;;;;;111.18;100.32;;;19.90;99.90;;;;;;5001336;28;20459;-67
2023/09/10 00:32:05;;;;;;;135.88;119.72;;;21.10;99.90;;;;;;5010407;28;20044;-65
2023/09/10 00:34:32;;;;;;;138.90;123.60;;;20.50;99.90;;;;;;5010433;28;20048;-66
2023/09/10 00:36:59;;;;;;;141.68;122.72;;;20.20;99.90;;;;;;5009717;28;20463;-66
2023/09/10 00:39:24;;;;;;;101.15;91.43;;;20.50;99.90;;;;;;5009696;28;20107;-67
2023/09/10 00:41:53;;;;;;;118.40;105.47;;;20.80;99.90;;;;;;5010358;28;20045;-65
2023/09/10 00:44:23;;;;;;;110.85;100.10;;;20.80;99.90;;;;;;5010353;28;20554;-66
2023/09/10 00:46:53;;;;;;;110.15;99.53;;;20.40;99.90;;;;;;5009182;28;20042;-66
2023/09/10 00:49:19;;;;;;;126.07;112.55;;;20.60;99.90;;;;;;5009551;28;20116;-66
2023/09/10 00:51:47;;;;;;;124.85;111.80;;;20.80;99.90;;;;;;5004128;28;20034;-66
2023/09/10 00:54:15;;;;;;;130.23;115.43;;;20.80;99.90;;;;;;5010201;28;20053;-66
2023/09/10 00:56:40;;;;;;;109.00;98.38;;;20.60;99.90;;;;;;5010098;28;20085;-66
2023/09/10 00:59:08;;;;;;;94.55;85.22;;;20.60;99.90;;;;;;5009826;28;20445;-67
2023/09/10 01:01:34;;;;;;;81.90;74.65;;;20.80;99.90;;;;;;5010156;28;20402;-67
2023/09/10 01:04:00;;;;;;;113.57;101.82;;;19.90;99.90;;;;;;5008935;28;20045;-65
2023/09/10 01:06:26;;;;;;;112.72;100.85;;;20.10;99.90;;;;;;5008969;28;20069;-66
2023/09/10 01:08:52;;;;;;;111.32;99.57;;;20.10;99.90;;;;;;5007893;28;20034;-66
2023/09/10 01:11:39;;;;;;;101.47;91.00;;;20.80;99.90;;;;;;5004782;28;20038;-66
2023/09/10 01:14:11;;;;;;;113.35;101.32;;;21.10;99.90;;;;;;5009647;28;20046;-66
2023/09/10 01:16:46;;;;;;;101.45;90.55;;;20.10;99.90;;;;;;5009365;28;20373;-66
2023/09/10 01:19:45;;;;;;;108.68;97.20;;;20.10;99.90;;;;;;5008629;28;20049;-65
2023/09/10 01:22:35;;;;;;;139.70;97.22;;;19.90;99.90;;;;;;5010039;28;20041;-66
2023/09/10 01:25:02;;;;;;;618.63;100.13;;;19.90;99.90;;;;;;5010106;28;20137;-67
2023/09/10 01:27:28;;;;;;;240.98;75.97;;;19.80;99.90;;;;;;5009798;28;20034;-67
2023/09/10 01:29:54;;;;;;;526.97;97.03;;;19.80;99.90;;;;;;5009220;28;20052;-66
2023/09/10 01:32:34;;;;;;;217.73;91.10;;;20.80;99.90;;;;;;5009853;28;20373;-65
2023/09/10 01:35:35;;;;;;;284.55;100.18;;;20.00;99.90;;;;;;4991659;28;20042;-66
2023/09/10 01:38:23;;;;;;;509.20;111.15;;;20.30;99.90;;;;;;4977717;28;20046;-67
2023/09/10 01:41:13;;;;;;;171.38;92.20;;;19.50;99.90;;;;;;5007017;28;20041;-65
2023/09/10 01:43:40;;;;;;;513.17;104.57;;;19.50;99.90;;;;;;4999103;28;20500;-65
2023/09/10 01:46:06;;;;;;;521.75;103.25;;;20.50;99.90;;;;;;5003527;28;20081;-66
2023/09/10 01:48:32;;;;;;;335.70;99.25;;;19.80;99.90;;;;;;5008313;28;20096;-66
2023/09/10 01:50:58;;;;;;;374.75;100.40;;;20.10;99.90;;;;;;5013264;28;20809;-66
2023/09/10 01:53:24;;;;;;;204.35;90.60;;;20.10;99.90;;;;;;5013112;28;20038;-66
2023/09/10 01:55:49;;;;;;;100.32;86.00;;;19.30;99.90;;;;;;5013532;28;20048;-66
2023/09/10 01:58:15;;;;;;;101.80;81.40;;;19.20;99.90;;;;;;5012664;28;20448;-67
2023/09/10 02:00:41;;;;;;;327.83;81.82;;;19.80;99.90;;;;;;5013362;28;20404;-66
2023/09/10 02:03:07;;;;;;;372.75;80.80;;;19.70;99.90;;;;;;5008922;28;21472;-64
2023/09/10 02:05:32;;;;;;;134.13;81.57;;;20.10;99.90;;;;;;5013004;28;20775;-66
2023/09/10 02:07:58;;;;;;;157.82;88.70;;;19.00;99.90;;;;;;5012671;28;20034;-65
2023/09/10 02:10:24;;;;;;;124.85;82.07;;;20.30;99.90;;;;;;5010954;28;20046;-65
2023/09/10 02:12:49;;;;;;;189.63;89.35;;;20.50;99.90;;;;;;5012872;28;20417;-66
2023/09/10 02:15:17;;;;;;;272.02;93.25;;;20.40;99.90;;;;;;5010169;28;20045;-66
2023/09/10 02:17:43;;;;;;;136.30;85.45;;;20.40;99.90;;;;;;5001468;28;20068;-65
2023/09/10 02:20:09;;;;;;;118.35;85.35;;;20.20;99.90;;;;;;5008920;28;20038;-66
2023/09/10 02:22:39;;;;;;;97.57;87.25;;;19.20;99.90;;;;;;5012864;28;20050;-66
2023/09/10 02:25:05;;;;;;;98.85;87.70;;;19.70;99.90;;;;;;5011410;28;20042;-66
2023/09/10 02:27:31;;;;;;;105.00;90.25;;;19.00;99.90;;;;;;5008945;28;20073;-65
2023/09/10 02:29:57;;;;;;;100.93;84.15;;;20.10;99.90;;;;;;4997224;28;20049;-66
2023/09/10 02:32:23;;;;;;;188.48;82.63;;;20.00;99.90;;;;;;4993187;28;20043;-66
2023/09/10 02:34:51;;;;;;;86.05;78.00;;;20.10;99.90;;;;;;5007549;28;20061;-66
2023/09/10 02:37:17;;;;;;;90.55;81.68;;;19.40;99.90;;;;;;5011412;28;20350;-65
2023/09/10 02:39:43;;;;;;;91.72;82.63;;;20.20;99.90;;;;;;4999814;28;20096;-66
2023/09/10 02:42:09;;;;;;;92.32;83.25;;;19.00;99.90;;;;;;4999843;28;20069;-65
2023/09/10 02:44:35;;;;;;;89.47;80.88;;;19.10;99.90;;;;;;4992782;28;20051;-66
2023/09/10 02:47:00;;;;;;;89.75;81.03;;;19.70;99.90;;;;;;5007812;28;20038;-66
2023/09/10 02:49:26;;;;;;;87.13;78.65;;;19.00;99.90;;;;;;5006741;28;20392;-66
2023/09/10 02:51:51;;;;;;;89.05;80.22;;;20.40;99.90;;;;;;5012598;28;20050;-65
2023/09/10 02:54:17;;;;;;;90.40;81.53;;;20.10;99.90;;;;;;5012242;28;20120;-65
2023/09/10 02:56:43;;;;;;;89.68;81.18;;;19.30;99.90;;;;;;5011030;28;20046;-66
2023/09/10 02:59:21;;;;;;;88.68;80.10;;;20.10;99.90;;;;;;5008522;28;20220;-66
2023/09/10 03:01:47;;;;;;;88.30;79.90;;;20.20;99.90;;;;;;5011903;28;20779;-64
2023/09/10 03:04:16;;;;;;;82.55;74.47;;;19.80;99.90;;;;;;5010426;28;20038;-65
2023/09/10 03:06:46;;;;;;;81.07;73.70;;;19.20;99.90;;;;;;5011212;28;20088;-65
2023/09/10 03:09:12;;;;;;;86.13;77.63;;;19.00;99.90;;;;;;5010807;28;20036;-66
2023/09/10 03:11:38;;;;;;;87.85;79.38;;;19.60;99.90;;;;;;5011990;28;20037;-66
2023/09/10 03:14:08;;;;;;;88.47;79.97;;;20.20;99.90;;;;;;5012149;28;20042;-66
2023/09/10 03:16:34;;;;;;;88.30;80.10;;;20.30;99.90;;;;;;5010705;28;20060;-66
2023/09/10 03:19:00;;;;;;;82.97;75.05;;;20.20;99.90;;;;;;5007868;28;20042;-66
2023/09/10 03:21:27;;;;;;;78.05;71.15;;;19.50;99.90;;;;;;5011419;28;20043;-65
2023/09/10 03:23:53;;;;;;;84.22;76.13;;;20.20;99.90;;;;;;5011418;28;20125;-66
2023/09/10 03:26:18;;;;;;;78.15;70.72;;;19.40;99.90;;;;;;5011359;28;20045;-65
2023/09/10 03:28:44;;;;;;;77.15;70.10;;;19.50;99.90;;;;;;5010747;28;20128;-66
2023/09/10 03:31:10;;;;;;;73.35;66.72;;;20.00;99.90;;;;;;5004717;28;20069;-66
2023/09/10 03:33:35;;;;;;;70.07;64.18;;;19.10;99.90;;;;;;4991826;28;20047;-65
2023/09/10 03:36:01;;;;;;;74.55;68.05;;;19.00;99.90;;;;;;5000906;28;20153;-65
2023/09/10 03:38:27;;;;;;;84.22;76.30;;;20.00;99.90;;;;;;5009848;28;20042;-65
2023/09/10 03:40:52;;;;;;;84.50;75.88;;;19.90;99.90;;;;;;5010724;28;20045;-64
2023/09/10 03:43:18;;;;;;;90.28;80.88;;;19.60;99.90;;;;;;5011253;28;20042;-66
2023/09/10 03:45:44;;;;;;;90.25;81.10;;;19.40;99.90;;;;;;5010953;28;20476;-65
2023/09/10 03:48:10;;;;;;;91.40;82.45;;;19.40;99.90;;;;;;5011460;28;20063;-66
2023/09/10 03:50:35;;;;;;;92.65;83.55;;;19.30;99.90;;;;;;5008584;28;20475;-65
2023/09/10 03:53:01;;;;;;;93.07;83.25;;;20.50;99.90;;;;;;5010853;28;20076;-64
2023/09/10 03:55:26;;;;;;;89.93;80.28;;;20.50;99.90;;;;;;5010976;28;20064;-65
2023/09/10 03:57:52;;;;;;;93.25;83.15;;;20.60;99.90;;;;;;5011274;28;20044;-61
2023/09/10 04:00:19;;;;;;;92.53;83.28;;;19.40;99.90;;;;;;4995678;28;20062;-61
2023/09/10 04:02:45;;;;;;;96.38;86.63;;;20.50;99.90;;;;;;4991474;28;20116;-61
2023/09/10 04:05:12;;;;;;;93.28;84.13;;;20.60;99.90;;;;;;4998598;28;20038;-61
2023/09/10 04:07:38;;;;;;;96.43;86.63;;;19.30;99.90;;;;;;5010550;28;20034;-61
2023/09/10 04:10:07;;;;;;;94.90;84.90;;;19.80;99.90;;;;;;5009239;28;20050;-61
2023/09/10 04:12:33;;;;;;;92.28;82.90;;;20.40;99.90;;;;;;5010435;28;20045;-61
2023/09/10 04:14:58;;;;;;;87.30;78.13;;;20.50;99.90;;;;;;5009725;28;20049;-61
2023/09/10 04:17:28;;;;;;;89.47;80.45;;;20.60;99.90;;;;;;5010792;28;20412;-61
2023/09/10 04:19:54;;;;;;;91.45;81.60;;;20.60;99.90;;;;;;5002223;28;20132;-61
2023/09/10 04:22:20;;;;;;;94.28;84.20;;;20.60;99.90;;;;;;4996413;28;20056;-61
2023/09/10 04:24:46;;;;;;;95.82;85.55;;;19.20;99.90;;;;;;4991476;28;20034;-61
2023/09/10 04:27:11;;;;;;;86.82;78.40;;;19.40;99.90;;;;;;4997203;28;20038;-61
2023/09/10 04:29:37;;;;;;;85.22;77.03;;;20.10;99.90;;;;;;5001254;28;20121;-61
2023/09/10 04:32:02;;;;;;;86.07;78.00;;;20.20;99.90;;;;;;4991315;28;20041;-60
2023/09/10 04:34:28;;;;;;;83.60;75.47;;;20.10;99.90;;;;;;4998399;28;20060;-61
2023/09/10 04:36:54;;;;;;;83.53;75.03;;;20.50;99.90;;;;;;5010447;28;20042;-61
2023/09/10 04:39:19;;;;;;;86.22;76.95;;;20.30;99.90;;;;;;5004038;28;20117;-61
2023/09/10 04:41:45;;;;;;;87.35;78.35;;;19.10;99.90;;;;;;4999324;28;20491;-61
2023/09/10 04:44:10;;;;;;;89.80;80.45;;;19.40;99.90;;;;;;5009601;28;20089;-61
2023/09/10 04:46:36;;;;;;;90.70;80.72;;;19.10;99.90;;;;;;5010283;28;20129;-61
2023/09/10 04:49:02;;;;;;;90.38;80.72;;;20.30;99.90;;;;;;5009279;28;20026;-61
2023/09/10 04:51:27;;;;;;;88.72;79.60;;;20.20;99.90;;;;;;5009137;28;20045;-61
2023/09/10 04:53:54;;;;;;;85.70;77.03;;;20.40;99.90;;;;;;5007998;28;20037;-61
2023/09/10 04:56:20;;;;;;;88.88;79.57;;;19.80;99.90;;;;;;4990346;28;20038;-62
2023/09/10 04:58:45;;;;;;;87.43;78.65;;;20.50;99.90;;;;;;5009047;28;20887;-61
2023/09/10 05:01:11;;;;;;;87.43;78.25;;;19.00;99.90;;;;;;5002026;28;20054;-61
2023/09/10 05:03:37;;;;;;;82.97;74.88;;;20.30;99.90;;;;;;5009790;28;20044;-61
2023/09/10 05:06:05;;;;;;;84.15;75.45;;;20.40;99.90;;;;;;5007844;28;20088;-61
2023/09/10 05:08:31;;;;;;;85.25;76.55;;;20.50;99.90;;;;;;5010046;28;20131;-66
2023/09/10 05:10:56;;;;;;;84.55;76.28;;;19.00;99.90;;;;;;4991715;28;20077;-66
2023/09/10 05:13:22;;;;;;;87.15;78.57;;;19.40;99.90;;;;;;4990675;28;20137;-66
2023/09/10 05:15:48;;;;;;;91.07;81.47;;;20.60;99.90;;;;;;5005009;28;20042;-66
2023/09/10 05:18:16;;;;;;;88.78;79.70;;;19.50;99.90;;;;;;5008575;28;20041;-66
2023/09/10 05:20:42;;;;;;;90.57;81.32;;;19.10;99.90;;;;;;5009916;28;20212;-67
2023/09/10 05:23:07;;;;;;;87.40;78.50;;;20.40;99.90;;;;;;5003766;28;20042;-66
2023/09/10 05:25:37;;;;;;;90.47;80.95;;;20.10;99.90;;;;;;5013558;28;20057;-66
2023/09/10 05:28:03;;;;;;;90.90;81.80;;;20.40;99.90;;;;;;5014098;28;20042;-65
2023/09/10 05:30:29;;;;;;;92.95;83.18;;;20.60;99.90;;;;;;5027421;28;20492;-66
2023/09/10 05:32:56;;;;;;;93.68;83.45;;;19.20;99.90;;;;;;5011673;28;20041;-66
2023/09/10 05:35:22;;;;;;;90.28;81.30;;;20.70;99.90;;;;;;5022191;28;20644;-65
2023/09/10 05:37:47;;;;;;;87.78;78.82;;;19.40;99.90;;;;;;5020826;28;20042;-65
2023/09/10 05:40:13;;;;;;;87.88;78.88;;;20.00;99.90;;;;;;5011021;28;20041;-65
2023/09/10 05:42:38;;;;;;;87.47;78.35;;;20.50;99.90;;;;;;5007283;28;20053;-65
2023/09/10 05:45:04;;;;;;;87.65;79.00;;;20.70;99.90;;;;;;4995693;28;20374;-65
2023/09/10 05:47:30;;;;;;;89.40;80.35;;;20.40;99.90;;;;;;5015112;28;20029;-65
2023/09/10 05:49:55;;;;;;;90.05;80.97;;;20.50;99.90;;;;;;5011767;28;20171;-65
2023/09/10 05:52:21;;;;;;;88.60;78.88;;;19.50;99.90;;;;;;5011782;28;20047;-64
2023/09/10 05:54:46;;;;;;;85.88;77.63;;;20.80;99.90;;;;;;5012458;28;20046;-65
2023/09/10 05:57:12;;;;;;;87.53;78.78;;;20.60;99.90;;;;;;5011199;28;20034;-65
2023/09/10 05:59:37;;;;;;;83.90;75.70;;;19.60;99.90;;;;;;5009330;28;20096;-66
2023/09/10 06:02:03;;;;;;;82.85;74.60;;;19.40;99.90;;;;;;5011821;28;20375;-65
2023/09/10 06:04:29;;;;;;;82.28;74.22;;;21.00;99.90;;;;;;5014669;28;20037;-65
2023/09/10 06:06:54;;;;;;;82.70;74.57;;;21.00;99.90;;;;;;5016098;28;20116;-66
2023/09/10 06:09:20;;;;;;;84.20;75.88;;;21.20;99.90;;;;;;5010357;28;20084;-66
2023/09/10 06:11:45;;;;;;;83.30;75.32;;;21.10;99.90;;;;;;5014697;28;20037;-66
2023/09/10 06:14:11;;;;;;;83.00;75.07;;;20.00;99.90;;;;;;5011692;28;20555;-65
2023/09/10 06:16:36;;;;;;;86.72;78.40;;;20.90;99.90;;;;;;5029374;28;20048;-60
2023/09/10 06:19:02;;;;;;;86.82;77.80;;;19.90;99.90;;;;;;5010031;28;20069;-60
2023/09/10 06:21:28;;;;;;;85.57;77.30;;;20.30;99.90;;;;;;5008306;28;20046;-60
2023/09/10 06:23:54;;;;;;;86.32;78.03;;;21.00;99.90;;;;;;5012359;28;20048;-59
2023/09/10 06:26:20;;;;;;;86.40;78.20;;;19.90;99.90;;;;;;5008131;28;20037;-60
2023/09/10 06:28:45;;;;;;;87.93;79.43;;;21.40;99.90;;;;;;5007475;28;20042;-63
2023/09/10 06:31:11;;;;;;;88.47;80.10;;;20.60;99.90;;;;;;5010547;28;20488;-61
2023/09/10 06:33:36;;;;;;;91.07;81.40;;;21.20;99.90;;;;;;5009098;28;20033;-60
2023/09/10 06:36:02;;;;;;;85.38;77.18;;;21.70;99.90;;;;;;5010507;28;20499;-61
2023/09/10 06:38:29;;;;;;;86.18;77.53;;;21.60;99.90;;;;;;5002901;28;20447;-60
2023/09/10 06:40:54;;;;;;;89.80;81.13;;;20.70;99.90;;;;;;5012321;28;20041;-59
2023/09/10 06:43:20;;;;;;;89.07;80.45;;;20.60;99.90;;;;;;5012392;28;20045;-61
2023/09/10 06:45:45;;;;;;;87.03;78.55;;;20.70;99.90;;;;;;5012745;28;20045;-61
2023/09/10 06:48:11;;;;;;;88.63;80.03;;;20.70;99.90;;;;;;5009731;28;20041;-60
2023/09/10 06:50:36;;;;;;;88.70;80.10;;;21.10;99.90;;;;;;5010207;28;20180;-61
2023/09/10 06:53:02;;;;;;;91.43;82.43;;;20.70;99.90;;;;;;5009585;28;20038;-60
2023/09/10 06:55:28;;;;;;;91.13;81.95;;;20.90;99.90;;;;;;5004757;28;20038;-59
2023/09/10 06:57:55;;;;;;;92.20;83.07;;;21.00;99.90;;;;;;5008821;28;20115;-60
2023/09/10 07:00:21;;;;;;;89.75;80.65;;;21.40;99.90;;;;;;5006776;28;20050;-60
2023/09/10 07:02:46;;;;;;;89.85;81.05;;;22.50;99.90;;;;;;5008323;28;20046;-59
2023/09/10 07:05:12;;;;;;;89.63;80.63;;;22.70;99.90;;;;;;5005314;28;20446;-61
2023/09/10 07:07:38;;;;;;;92.22;83.40;;;22.70;99.90;;;;;;5013857;28;20044;-59
2023/09/10 07:10:03;;;;;;;88.00;79.60;;;22.20;99.90;;;;;;5011659;28;20521;-60
2023/09/10 07:12:29;;;;;;;85.78;77.70;;;21.70;99.90;;;;;;5011096;28;20416;-60
2023/09/10 07:14:55;;;;;;;85.57;77.28;;;21.80;99.90;;;;;;5010528;28;20052;-60
2023/09/10 07:17:20;;;;;;;84.22;76.32;;;23.10;99.90;;;;;;5007769;28;20073;-60
2023/09/10 07:19:46;;;;;;;81.60;73.80;;;23.20;99.90;;;;;;5006500;28;20049;-60
2023/09/10 07:22:11;;;;;;;79.07;71.53;;;22.10;99.90;;;;;;5009040;28;20046;-60
2023/09/10 07:24:37;;;;;;;82.72;74.55;;;22.80;99.90;;;;;;5010857;28;20041;-60
2023/09/10 07:27:03;;;;;;;79.25;71.63;;;22.40;99.90;;;;;;5009674;28;20068;-60
2023/09/10 07:29:28;;;;;;;78.78;71.25;;;23.10;99.90;;;;;;5009240;28;20046;-60
2023/09/10 07:31:54;;;;;;;76.88;69.30;;;23.20;99.90;;;;;;4999852;28;20045;-60
2023/09/10 07:34:21;;;;;;;75.03;68.03;;;22.90;99.90;;;;;;5001477;28;20037;-59
2023/09/10 07:36:47;;;;;;;74.25;67.28;;;23.60;99.90;;;;;;5009545;28;20038;-59
2023/09/10 07:39:14;;;;;;;71.80;65.03;;;22.90;99.90;;;;;;5006057;28;20051;-59
2023/09/10 07:41:39;;;;;;;73.80;66.70;;;23.10;99.90;;;;;;5010901;28;20049;-59
2023/09/10 07:44:05;;;;;;;69.15;62.40;;;24.20;99.90;;;;;;5008032;28;20765;-59
2023/09/10 07:46:32;;;;;;;65.80;59.60;;;23.50;99.90;;;;;;5009641;28;20042;-60
2023/09/10 07:48:58;;;;;;;65.35;58.58;;;23.60;99.90;;;;;;5023490;28;20543;-61
2023/09/10 07:51:23;;;;;;;62.53;56.58;;;23.70;99.90;;;;;;5024515;28;20064;-61
2023/09/10 07:53:49;;;;;;;58.03;52.08;;;24.40;99.90;;;;;;5001525;28;20488;-62
2023/09/10 07:56:14;;;;;;;54.70;49.50;;;24.20;99.90;;;;;;5007628;28;20091;-60
2023/09/10 07:58:40;;;;;;;53.47;48.42;;;25.10;99.90;;;;;;5012673;28;20566;-60
2023/09/10 08:01:06;;;;;;;49.45;44.65;;;25.30;99.90;;;;;;5007478;28;20068;-60
2023/09/10 08:03:31;;;;;;;47.05;42.75;;;25.40;99.90;;;;;;5006462;28;20488;-60
2023/09/10 08:05:57;;;;;;;45.17;40.65;;;26.10;99.90;;;;;;5011216;28;20046;-60
2023/09/10 08:08:23;;;;;;;41.58;37.85;;;26.20;99.90;;;;;;5008952;28;20038;-60
2023/09/10 08:10:48;;;;;;;41.33;37.53;;;26.30;99.90;;;;;;5001644;28;20034;-60
2023/09/10 08:13:14;;;;;;;41.20;37.47;;;26.60;99.90;;;;;;5007858;28;20072;-59
2023/09/10 08:15:40;;;;;;;38.92;35.35;;;26.80;99.90;;;;;;5007845;28;20042;-61
2023/09/10 08:18:10;;;;;;;39.03;34.92;;;27.10;99.90;;;;;;5009450;28;20038;-59
2023/09/10 08:20:37;;;;;;;40.88;37.08;;;27.10;99.90;;;;;;5008470;28;20060;-61
2023/09/10 08:23:03;;;;;;;39.85;36.05;;;27.20;99.90;;;;;;5004923;28;20050;-60
2023/09/10 08:25:29;;;;;;;39.67;36.20;;;27.40;99.90;;;;;;5004229;28;20092;-59
2023/09/10 08:27:54;;;;;;;39.00;35.40;;;27.60;99.90;;;;;;5010549;28;20045;-61
2023/09/10 08:30:21;;;;;;;38.75;35.10;;;27.80;99.90;;;;;;5007429;28;20034;-60
2023/09/10 08:32:47;;;;;;;37.53;33.97;;;28.00;99.90;;;;;;5024318;28;20092;-62
2023/09/10 08:35:13;;;;;;;38.03;34.42;;;28.10;1.00;;;;;;5004768;28;20054;-60
2023/09/10 08:37:39;;;;;;;37.58;34.08;;;28.40;99.90;;;;;;5010414;28;20451;-62
2023/09/10 08:40:08;;;;;;;38.22;34.63;;;28.50;99.90;;;;;;5010342;28;20038;-63
2023/09/10 08:43:06;;;;;;;36.88;33.45;;;28.70;1.00;;;;;;5008171;28;20041;-63
2023/09/10 08:45:31;;;;;;;36.00;32.53;;;28.70;68.20;;;;;;4993465;28;20060;-62
2023/09/10 08:48:00;;;;;;;34.50;31.20;;;28.80;99.90;;;;;;5008188;28;20403;-63
2023/09/10 08:50:26;;;;;;;34.78;31.48;;;28.90;93.70;;;;;;5007599;28;20064;-63
2023/09/10 08:52:53;;;;;;;32.65;29.77;;;28.80;1.00;;;;;;5010776;28;20117;-63
2023/09/10 08:55:19;;;;;;;31.90;28.88;;;28.90;99.90;;;;;;5010019;28;20088;-63
2023/09/10 08:57:46;;;;;;;30.73;27.60;;;29.20;99.90;;;;;;5011233;28;20034;-63
2023/09/10 09:00:12;;;;;;;29.55;26.60;;;29.30;99.90;;;;;;5009724;28;20584;-63
2023/09/10 09:02:45;;;;;;;27.60;24.65;;;29.50;20.20;;;;;;5004994;28;20385;-63
2023/09/10 09:05:12;;;;;;;27.70;24.90;;;29.70;1.00;;;;;;5008954;28;20041;-63
2023/09/10 09:07:46;;;;;;;25.17;22.60;;;29.90;1.00;;;;;;5009100;28;20489;-64
2023/09/10 09:10:26;;;;;;;25.27;23.08;;;30.20;99.90;;;;;;5008156;28;20037;-63
2023/09/10 09:13:05;;;;;;;29.92;27.05;;;30.40;99.90;;;;;;5006624;28;20033;-63
2023/09/10 09:15:31;;;;;;;24.42;22.05;;;30.70;99.90;;;;;;5008527;28;20052;-63
2023/09/10 09:17:58;;;;;;;26.80;24.08;;;30.70;99.90;;;;;;5000967;28;20423;-64
2023/09/10 09:20:24;;;;;;;25.00;22.65;;;30.60;99.90;;;;;;5014593;28;20033;-63
2023/09/10 09:22:56;;;;;;;44.40;40.17;;;30.50;71.80;;;;;;5011235;28;20100;-63
2023/09/10 09:25:22;;;;;;;46.13;41.83;;;30.60;43.80;;;;;;5010481;28;20076;-63
2023/09/10 09:27:48;;;;;;;49.35;45.05;;;30.70;24.30;;;;;;5009644;28;20046;-63
2023/09/10 09:30:14;;;;;;;56.05;50.90;;;30.70;1.00;;;;;;5006873;28;20404;-63
2023/09/10 09:32:40;;;;;;;63.20;57.45;;;30.60;1.00;;;;;;5006292;28;20041;-62
2023/09/10 09:35:09;;;;;;;81.10;74.22;;;30.70;1.00;;;;;;5009108;28;20514;-63
2023/09/10 09:37:36;;;;;;;104.00;95.15;;;30.60;1.00;;;;;;5006868;28;20125;-63
2023/09/10 09:40:11;;;;;;;102.75;94.28;;;30.60;1.00;;;;;;5008895;28;20038;-63
2023/09/10 09:42:38;;;;;;;110.07;100.03;;;30.50;1.00;;;;;;5007439;28;20415;-63
2023/09/10 09:45:04;;;;;;;121.80;111.90;;;30.50;1.00;;;;;;5008526;28;20042;-62
2023/09/10 09:47:31;;;;;;;117.82;108.22;;;30.40;1.00;;;;;;5008686;28;20034;-62
2023/09/10 09:49:57;;;;;;;118.28;108.35;;;30.60;1.00;;;;;;5007471;28;20034;-63
2023/09/10 09:52:23;;;;;;;132.05;121.22;;;30.90;1.00;;;;;;5009293;28;20038;-63
2023/09/10 09:54:49;;;;;;;117.57;107.88;;;31.30;1.00;;;;;;5021888;28;20042;-63
2023/09/10 09:57:16;;;;;;;98.70;90.47;;;31.60;1.00;;;;;;5008933;28;20048;-63
2023/09/10 09:59:42;;;;;;;104.95;96.50;;;31.80;1.00;;;;;;5008646;28;20053;-63
2023/09/10 10:02:14;;;;;;;100.93;92.65;;;32.00;99.90;;;;;;5006634;28;20073;-62
2023/09/10 10:04:41;;;;;;;113.85;104.95;;;31.90;99.90;;;;;;5005968;28;20052;-62
2023/09/10 10:07:09;;;;;;;111.35;102.35;;;31.60;99.90;;;;;;5008909;28;20053;-63
2023/09/10 10:09:36;;;;;;;127.10;116.80;;;31.40;99.90;;;;;;5006734;28;20474;-62
2023/09/10 10:12:05;;;;;;;132.20;121.93;;;30.80;99.90;;;;;;5008584;28;20034;-62
2023/09/10 10:14:32;;;;;;;151.98;140.00;;;30.60;99.90;;;;;;5010583;28;20121;-62
2023/09/10 10:17:01;;;;;;;137.27;126.53;;;30.50;99.90;;;;;;5008833;28;20042;-62
2023/09/10 10:19:30;;;;;;;144.25;133.23;;;30.50;99.90;;;;;;5007869;28;20044;-62
2023/09/10 10:21:56;;;;;;;126.00;116.68;;;30.40;99.90;;;;;;5011134;28;20046;-62
2023/09/10 10:24:22;;;;;;;126.55;116.82;;;30.40;99.90;;;;;;5011476;28;20080;-62
2023/09/10 10:26:49;;;;;;;143.63;132.88;;;30.30;99.90;;;;;;5012212;28;20069;-62
2023/09/10 10:29:17;;;;;;;124.72;115.70;;;30.30;99.90;;;;;;5012582;28;20120;-62
2023/09/10 10:31:46;;;;;;;133.20;123.00;;;30.20;99.90;;;;;;4998064;28;20453;-62
2023/09/10 10:34:16;;;;;;;126.10;116.40;;;30.20;99.90;;;;;;5010577;28;20451;-62
2023/09/10 10:37:31;;;;;;;136.85;126.25;;;30.10;99.90;;;;;;5011305;28;20512;-62
2023/09/10 10:40:08;;;;;;;122.07;111.90;;;30.20;99.90;;;;;;4981955;28;20132;-62
2023/09/10 10:42:54;;;;;;;123.57;114.60;;;30.30;1.00;;;;;;5010577;28;20128;-62
2023/09/10 10:45:20;;;;;;;116.32;107.50;;;30.20;99.90;;;;;;5013023;28;20361;-62
2023/09/10 10:47:47;;;;;;;125.55;116.00;;;30.20;99.90;;;;;;5011624;28;20050;-62
2023/09/10 10:50:15;;;;;;;122.35;112.10;;;30.20;99.90;;;;;;5008478;28;20042;-62
2023/09/10 10:52:55;;;;;;;128.38;118.50;;;30.20;99.90;;;;;;5010557;28;20037;-62
2023/09/10 10:55:22;;;;;;;119.53;110.75;;;30.50;99.90;;;;;;5011767;28;20132;-62
2023/09/10 10:57:47;;;;;;;104.55;96.28;;;30.90;99.90;;;;;;5011940;28;20775;-59
2023/09/10 11:00:13;;;;;;;99.72;91.38;;;31.30;99.90;;;;;;5010887;28;20074;-60
2023/09/10 11:02:39;;;;;;;97.38;89.65;;;31.70;99.90;;;;;;5002709;28;20184;-61
2023/09/10 11:05:06;;;;;;;105.35;96.65;;;31.80;99.90;;;;;;5009287;28;20556;-60
2023/09/10 11:07:33;;;;;;;92.53;85.00;;;31.90;99.90;;;;;;5013298;28;20037;-59
2023/09/10 11:10:19;;;;;;;113.10;104.18;;;32.00;99.90;;;;;;5009805;28;20045;-59
2023/09/10 11:13:05;;;;;;;91.53;84.43;;;31.70;99.90;;;;;;5008151;28;20045;-60
2023/09/10 11:15:31;;;;;;;92.13;85.05;;;31.30;99.90;;;;;;5014037;28;20041;-59
2023/09/10 11:18:34;;;;;;;103.80;95.18;;;31.10;99.90;;;;;;5012800;28;20065;-60
2023/09/10 11:21:11;;;;;;;102.22;94.30;;;31.10;99.90;;;;;;5008789;28;20046;-60
2023/09/10 11:23:47;;;;;;;116.57;107.35;;;31.00;99.90;;;;;;4999192;28;20049;-60
2023/09/10 11:26:12;;;;;;;117.85;109.07;;;30.90;99.90;;;;;;5009051;28;20072;-60
2023/09/10 11:28:46;;;;;;;120.47;111.70;;;30.80;99.90;;;;;;5010640;28;20511;-61
2023/09/10 11:31:37;;;;;;;106.47;98.95;;;30.70;99.90;;;;;;5010480;28;20500;-61
2023/09/10 11:34:15;;;;;;;123.85;114.15;;;30.60;99.90;;;;;;5006069;28;20045;-59
2023/09/10 11:36:48;;;;;;;106.55;97.88;;;30.50;99.90;;;;;;5011352;28;20377;-58
2023/09/10 11:39:16;;;;;;;120.68;110.93;;;30.40;99.90;;;;;;5012476;28;20046;-59
2023/09/10 11:41:44;;;;;;;114.90;106.22;;;30.50;99.90;;;;;;5010051;28;20037;-60
2023/09/10 11:44:10;;;;;;;109.22;100.85;;;30.40;99.90;;;;;;5005980;28;20038;-61
2023/09/10 11:46:37;;;;;;;120.75;111.85;;;30.30;99.90;;;;;;5007882;28;20034;-59
2023/09/10 11:49:03;;;;;;;108.80;100.15;;;30.30;99.90;;;;;;5008643;28;20078;-60
2023/09/10 11:51:29;;;;;;;126.72;116.72;;;30.20;99.90;;;;;;5013485;28;20070;-59
2023/09/10 11:53:54;;;;;;;129.13;117.55;;;30.10;99.90;;;;;;5009564;28;20041;-59
2023/09/10 11:56:20;;;;;;;110.03;101.65;;;30.10;99.90;;;;;;5005443;28;20391;-59
2023/09/10 11:58:45;;;;;;;112.82;103.25;;;30.10;99.90;;;;;;5009991;28;20042;-59
2023/09/10 12:01:11;;;;;;;114.60;105.30;;;30.20;99.90;;;;;;5004446;28;20424;-58
2023/09/10 12:03:41;;;;;;;102.95;95.13;;;30.20;99.90;;;;;;5006077;28;20487;-60
2023/09/10 12:06:07;;;;;;;87.30;80.18;;;30.30;99.90;;;;;;5000793;28;20048;-62
2023/09/10 12:08:33;;;;;;;93.13;85.53;;;30.40;99.90;;;;;;5009222;28;20567;-62
2023/09/10 12:11:03;;;;;;;92.30;84.75;;;30.30;99.90;;;;;;5009668;28;20105;-62
2023/09/10 12:13:29;;;;;;;102.00;94.13;;;30.40;99.90;;;;;;5008072;28;20077;-61
2023/09/10 12:15:55;;;;;;;103.57;95.55;;;30.30;99.90;;;;;;5007487;28;20049;-62
2023/09/10 12:18:22;;;;;;;79.40;72.63;;;30.20;99.90;;;;;;5007225;28;20526;-62
2023/09/10 12:20:48;;;;;;;85.65;78.85;;;30.20;99.90;;;;;;5022904;28;20479;-62
2023/09/10 12:23:14;;;;;;;94.75;87.05;;;30.20;99.90;;;;;;5008331;28;20088;-62